Decoded Metar for SBPS (PORTO SEGURO in BRAZIL) (IATA:N/A) | Meteo·Mobile Aviation Weather
aviador You're here:

SBPS Decoded Metar

PORTO SEGURO in BRAZIL
Report Time2018-09-19 16:00:00
UTC Time2018-09-19 16:22:36
Flight Rules vfr VFR
Wind040° at 13 kt
W.Decomp.*RWY 10: 10.4 kt HW 7.8 kt LCW
W.Rank040° ranks 9
Current wind is above 040° avg. (7.6)
Visibility9999 m
Phenomena:Vicinity showers
Clouds:Scattered 015 Hf
Scattered 020 Hf
Expected CloudBase > 3,600 ft AGL from Temp-Dew spread
CeilingNone
Temp29°C (ISA +14)
Dew Point20°C (58% RH)
Heat Index30.7°C
AAT28.0°C
QNH1016 hPa
Density Alt2,021 ft
Elevation167 ft
Report Wrong Elevation
Raw Report
METAR SBPS 191600Z 04013KT 9999 VCSH SCT015 SCT020 29/20 Q1016=

Extra information for SBPS:More info

Metar Taf Metar & Taf Last 4 Metars F.Rules Stats Wind Profile Meteogram Temp Stats Airport Information Weather charts Add Link Nearby VenuesMetar ALERT Operation Metar Decoded Social comments